createdAt,value
2023-05-20T00:00:04.544Z,60.69
2023-05-20T00:01:06.285Z,60.81
2023-05-20T00:02:08.034Z,61.36
2023-05-20T00:03:09.820Z,61.09
2023-05-20T00:04:11.980Z,61.00
2023-05-20T00:05:14.054Z,61.15
2023-05-20T00:06:15.920Z,61.51
2023-05-20T00:07:20.294Z,61.49
2023-05-20T00:08:22.051Z,61.90
2023-05-20T00:09:23.786Z,61.71
2023-05-20T00:10:25.844Z,61.50
2023-05-20T00:11:27.717Z,61.75
2023-05-20T00:12:29.493Z,61.67
2023-05-20T00:13:31.352Z,61.87
2023-05-20T00:14:33.127Z,62.02
2023-05-20T00:15:36.601Z,61.55
2023-05-20T00:16:38.720Z,62.25
2023-05-20T00:17:40.649Z,62.18
2023-05-20T00:18:42.410Z,61.93
2023-05-20T00:19:44.177Z,62.72
2023-05-20T00:20:46.040Z,62.49
2023-05-20T00:21:47.882Z,62.79
2023-05-20T00:22:49.621Z,62.76
2023-05-20T00:23:52.049Z,62.21
2023-05-20T00:24:53.785Z,62.27
2023-05-20T00:25:56.619Z,62.17
2023-05-20T00:26:59.178Z,62.41
2023-05-20T00:28:01.101Z,62.39
2023-05-20T00:29:02.929Z,62.83
2023-05-20T00:30:05.061Z,62.72
2023-05-20T00:31:06.893Z,62.81
2023-05-20T00:32:08.688Z,63.06
2023-05-20T00:33:10.592Z,62.79
2023-05-20T00:34:12.464Z,63.47
2023-05-20T00:35:14.304Z,63.72
2023-05-20T00:36:16.074Z,63.98
2023-05-20T00:37:17.912Z,63.79
2023-05-20T00:38:19.657Z,63.96
2023-05-20T00:39:21.399Z,64.54
2023-05-20T00:40:23.741Z,64.04
2023-05-20T00:41:25.517Z,64.01
2023-05-20T00:42:28.952Z,64.22
2023-05-20T00:43:30.826Z,64.47
2023-05-20T00:44:32.656Z,64.60
2023-05-20T00:45:34.835Z,64.95
2023-05-20T00:46:37.269Z,64.58
2023-05-20T00:47:39.517Z,64.53
2023-05-20T00:48:43.930Z,64.22
2023-05-20T00:49:48.804Z,64.33
2023-05-20T00:50:52.256Z,64.45
2023-05-20T00:51:54.089Z,64.32
2023-05-20T00:52:55.889Z,64.81
2023-05-20T00:53:58.453Z,64.78
2023-05-20T00:55:00.385Z,64.20
2023-05-20T00:56:03.061Z,64.33
2023-05-20T00:57:07.132Z,64.76
2023-05-20T00:58:10.058Z,64.08
2023-05-20T00:59:12.431Z,64.09
2023-05-20T01:00:14.586Z,64.17
2023-05-20T01:01:16.390Z,63.83
2023-05-20T01:02:18.287Z,63.45
2023-05-20T01:03:20.177Z,63.14
2023-05-20T01:04:21.955Z,63.55
2023-05-20T01:05:23.734Z,64.02
2023-05-20T01:06:26.161Z,63.94
2023-05-20T01:07:27.999Z,63.58
2023-05-20T01:08:29.933Z,64.13
2023-05-20T01:09:32.513Z,64.27
2023-05-20T01:10:36.186Z,63.95
2023-05-20T01:11:48.735Z,64.32
2023-05-20T01:12:54.485Z,64.43
2023-05-20T01:14:01.069Z,64.31
2023-05-20T01:15:09.337Z,64.54
2023-05-20T01:16:12.109Z,64.45
2023-05-20T01:17:18.063Z,64.16
2023-05-20T01:18:20.855Z,64.20
2023-05-20T01:19:35.570Z,64.01
2023-05-20T01:20:39.529Z,64.23
2023-05-20T01:21:43.658Z,64.46
2023-05-20T01:22:49.124Z,64.51
2023-05-20T01:23:51.317Z,64.50
2023-05-20T01:24:57.239Z,64.92
2023-05-20T01:25:58.993Z,64.95
2023-05-20T01:27:00.719Z,64.90
2023-05-20T01:28:02.558Z,64.40
2023-05-20T01:29:04.992Z,64.74
2023-05-20T01:30:07.725Z,64.90
2023-05-20T01:31:21.012Z,65.01
2023-05-20T01:32:32.867Z,65.01
2023-05-20T01:33:37.700Z,65.19
2023-05-20T01:34:41.778Z,65.55
2023-05-20T01:35:43.857Z,65.49
2023-05-20T01:36:47.175Z,65.78
2023-05-20T01:37:50.763Z,65.54
2023-05-20T01:38:54.364Z,65.51
2023-05-20T01:39:57.126Z,65.36
2023-05-20T01:41:01.692Z,66.25
2023-05-20T01:42:05.126Z,66.33
2023-05-20T01:43:07.525Z,66.42
2023-05-20T01:44:10.061Z,66.96
2023-05-20T01:45:12.628Z,67.09
2023-05-20T01:46:15.754Z,66.99
2023-05-20T01:47:17.650Z,66.93
2023-05-20T01:48:19.393Z,66.84
2023-05-20T01:49:21.311Z,67.07
2023-05-20T01:50:23.125Z,66.79
2023-05-20T01:51:24.895Z,66.66
2023-05-20T01:52:26.728Z,66.66
2023-05-20T01:53:28.678Z,67.02
2023-05-20T01:54:30.540Z,67.08
2023-05-20T01:55:32.500Z,66.47
2023-05-20T01:56:34.758Z,66.72
2023-05-20T01:57:36.580Z,66.71
2023-05-20T01:58:38.333Z,67.28
2023-05-20T01:59:40.172Z,66.74
2023-05-20T02:00:41.992Z,67.12
2023-05-20T02:01:43.903Z,66.70
2023-05-20T02:02:45.828Z,66.85
2023-05-20T02:03:47.690Z,67.26
2023-05-20T02:04:51.650Z,67.55
2023-05-20T02:05:53.464Z,67.80
2023-05-20T02:06:55.977Z,67.60
2023-05-20T02:07:57.874Z,67.22
2023-05-20T02:08:59.624Z,67.04
2023-05-20T02:10:01.528Z,67.25
2023-05-20T02:11:03.256Z,67.59
2023-05-20T02:12:05.514Z,67.38
2023-05-20T02:13:07.265Z,67.26
2023-05-20T02:14:09.028Z,67.38
2023-05-20T02:15:10.957Z,67.26
2023-05-20T02:16:12.761Z,67.78
2023-05-20T02:17:16.622Z,68.22
2023-05-20T02:18:18.979Z,68.05
2023-05-20T02:19:23.949Z,68.23
2023-05-20T02:20:25.904Z,68.28
2023-05-20T02:21:27.669Z,67.76
2023-05-20T02:22:29.472Z,68.12
2023-05-20T02:23:34.683Z,68.01
2023-05-20T02:24:36.529Z,67.72
2023-05-20T02:25:38.269Z,68.01
2023-05-20T02:26:40.024Z,67.75
2023-05-20T02:27:41.816Z,67.25
2023-05-20T02:28:46.925Z,67.81
2023-05-20T02:29:48.697Z,67.84
2023-05-20T02:30:51.833Z,67.59
2023-05-20T02:31:53.566Z,67.70
2023-05-20T02:32:55.797Z,67.76
2023-05-20T02:33:57.644Z,67.72
2023-05-20T02:34:59.401Z,67.92
2023-05-20T02:36:01.145Z,68.01
2023-05-20T02:37:02.945Z,68.18
2023-05-20T02:38:04.701Z,68.11
2023-05-20T02:39:06.424Z,68.44
2023-05-20T02:40:09.505Z,68.64
2023-05-20T02:41:11.466Z,68.27
2023-05-20T02:42:13.371Z,68.54
2023-05-20T02:43:15.187Z,68.99
2023-05-20T02:44:17.074Z,69.42
2023-05-20T02:45:18.881Z,69.42
2023-05-20T02:46:20.996Z,69.24
2023-05-20T02:47:22.844Z,69.38
2023-05-20T02:48:24.861Z,69.25
2023-05-20T02:49:26.690Z,68.96
2023-05-20T02:50:28.762Z,69.12
2023-05-20T02:51:32.140Z,69.11
2023-05-20T02:52:34.233Z,68.73
2023-05-20T02:53:36.000Z,69.56
2023-05-20T02:54:37.734Z,69.62
2023-05-20T02:55:42.047Z,69.56
2023-05-20T02:56:43.823Z,69.47
2023-05-20T02:57:45.562Z,69.30
2023-05-20T02:58:48.047Z,69.30
2023-05-20T02:59:50.030Z,69.53
2023-05-20T03:00:52.481Z,69.46
2023-05-20T03:01:54.223Z,69.57
2023-05-20T03:02:56.261Z,69.91
2023-05-20T03:03:58.016Z,69.52
2023-05-20T03:05:00.061Z,69.67
2023-05-20T03:06:01.834Z,69.93
2023-05-20T03:07:03.562Z,70.20
2023-05-20T03:08:10.084Z,70.33
2023-05-20T03:09:11.928Z,70.50
2023-05-20T03:10:13.705Z,71.05
2023-05-20T03:11:16.161Z,70.88
2023-05-20T03:12:18.118Z,70.84
2023-05-20T03:13:19.885Z,70.85
2023-05-20T03:14:21.660Z,70.86
2023-05-20T03:15:23.446Z,70.65
2023-05-20T03:16:25.393Z,70.31
2023-05-20T03:17:27.340Z,70.54
2023-05-20T03:18:29.708Z,70.64
2023-05-20T03:19:31.788Z,70.97
2023-05-20T03:20:33.544Z,70.70
2023-05-20T03:21:35.328Z,71.25
2023-05-20T03:22:37.070Z,71.49
2023-05-20T03:23:38.810Z,71.65
2023-05-20T03:24:40.995Z,71.54
2023-05-20T03:25:42.797Z,71.27
2023-05-20T03:26:46.548Z,71.28
2023-05-20T03:27:48.634Z,71.00
2023-05-20T03:28:50.384Z,70.97
2023-05-20T03:29:55.160Z,70.36
2023-05-20T03:30:57.000Z,69.84
2023-05-20T03:31:58.779Z,70.33
2023-05-20T03:33:00.560Z,70.98
2023-05-20T03:34:02.351Z,71.19
2023-05-20T03:35:04.366Z,71.36
2023-05-20T03:36:06.769Z,71.19
2023-05-20T03:37:08.535Z,70.80
2023-05-20T03:38:10.283Z,71.16
2023-05-20T03:39:12.368Z,71.31
2023-05-20T03:40:14.352Z,71.05
2023-05-20T03:41:16.204Z,71.43
2023-05-20T03:42:17.988Z,71.95
2023-05-20T03:43:19.716Z,72.11
2023-05-20T03:44:21.561Z,72.21
2023-05-20T03:45:23.488Z,71.95
2023-05-20T03:46:25.243Z,71.86
2023-05-20T03:47:27.949Z,71.85
2023-05-20T03:48:29.749Z,71.75
2023-05-20T03:49:31.575Z,71.89
2023-05-20T03:50:33.514Z,72.07
2023-05-20T03:51:35.250Z,72.19
2023-05-20T03:52:37.334Z,72.50
2023-05-20T03:53:39.072Z,72.84
2023-05-20T03:54:40.804Z,72.70
2023-05-20T03:55:42.608Z,72.71
2023-05-20T03:56:47.077Z,72.63
2023-05-20T03:57:48.992Z,73.08
2023-05-20T03:58:51.631Z,73.06
2023-05-20T03:59:53.494Z,73.47
2023-05-20T04:00:58.623Z,73.66
2023-05-20T04:02:00.467Z,73.05
2023-05-20T04:03:02.364Z,72.92
2023-05-20T04:04:04.493Z,72.71
2023-05-20T04:05:09.037Z,72.93
2023-05-20T04:06:10.869Z,73.01
2023-05-20T04:07:12.665Z,73.19
2023-05-20T04:08:14.472Z,73.63
2023-05-20T04:09:16.227Z,73.56
2023-05-20T04:10:20.032Z,72.84
2023-05-20T04:11:21.811Z,73.02
2023-05-20T04:12:26.168Z,73.29
2023-05-20T04:13:28.091Z,72.92
2023-05-20T04:14:29.998Z,73.16
2023-05-20T04:15:36.699Z,73.50
2023-05-20T04:16:39.003Z,73.51
2023-05-20T04:17:41.159Z,73.35
2023-05-20T04:18:48.645Z,72.99
2023-05-20T04:19:50.428Z,72.52
2023-05-20T04:20:56.450Z,73.50
2023-05-20T04:21:58.220Z,72.61
2023-05-20T04:23:00.073Z,73.06
2023-05-20T04:24:02.011Z,71.98
2023-05-20T04:25:05.402Z,71.30
2023-05-20T04:26:07.287Z,71.17
2023-05-20T04:27:09.597Z,72.43
2023-05-20T04:28:14.282Z,74.08
2023-05-20T04:29:16.205Z,74.32
2023-05-20T04:30:18.699Z,74.54
2023-05-20T04:31:21.422Z,72.76
2023-05-20T04:32:23.846Z,73.56
2023-05-20T04:33:26.745Z,71.86
2023-05-20T04:34:35.319Z,71.26
2023-05-20T04:35:38.287Z,69.42
2023-05-20T04:36:40.587Z,67.77
2023-05-20T04:37:48.244Z,67.04
2023-05-20T04:38:50.086Z,66.88
2023-05-20T04:39:52.677Z,66.13
2023-05-20T04:40:54.463Z,64.79
2023-05-20T04:41:56.301Z,64.52
2023-05-20T04:43:00.180Z,63.95
2023-05-20T04:44:02.076Z,64.14
2023-05-20T04:45:05.936Z,62.84
2023-05-20T04:46:08.071Z,62.16
2023-05-20T04:47:09.902Z,61.85
2023-05-20T04:48:11.666Z,61.78
2023-05-20T04:49:13.424Z,60.63
2023-05-20T04:50:15.735Z,59.48
2023-05-20T04:51:18.001Z,57.13
2023-05-20T04:52:19.772Z,55.20
2023-05-20T04:53:24.606Z,56.43
2023-05-20T04:54:26.580Z,57.39
2023-05-20T04:55:28.867Z,57.32
2023-05-20T04:56:30.650Z,55.65
2023-05-20T04:57:35.373Z,58.22
2023-05-20T04:58:38.097Z,57.12
2023-05-20T04:59:39.841Z,56.42
2023-05-20T05:00:43.162Z,54.85
2023-05-20T05:01:45.133Z,55.68
2023-05-20T05:02:47.843Z,55.67
2023-05-20T05:03:49.594Z,55.69
2023-05-20T05:04:51.354Z,54.29
2023-05-20T05:05:57.514Z,53.98
2023-05-20T05:06:59.245Z,53.43
2023-05-20T05:08:01.096Z,50.78
2023-05-20T05:09:02.961Z,50.60
2023-05-20T05:10:04.965Z,49.92
2023-05-20T05:11:07.140Z,49.19
2023-05-20T05:12:08.915Z,49.43
2023-05-20T05:13:10.700Z,51.13
2023-05-20T05:14:12.455Z,52.18
2023-05-20T05:15:14.212Z,52.38
2023-05-20T05:16:16.051Z,50.43
2023-05-20T05:17:17.860Z,49.57
2023-05-20T05:18:19.674Z,50.62
2023-05-20T05:19:21.464Z,50.11
2023-05-20T05:20:23.625Z,49.55
2023-05-20T05:21:25.400Z,48.20
2023-05-20T05:22:27.145Z,47.67
2023-05-20T05:23:29.017Z,46.97
2023-05-20T05:24:30.828Z,47.48
2023-05-20T05:25:33.350Z,47.21
2023-05-20T05:26:35.243Z,46.89
2023-05-20T05:27:37.378Z,46.24
2023-05-20T05:28:43.487Z,46.32
2023-05-20T05:29:45.263Z,46.42
2023-05-20T05:30:47.017Z,47.23
2023-05-20T05:31:48.859Z,44.49
2023-05-20T05:32:51.136Z,43.70
2023-05-20T05:33:52.931Z,44.91
2023-05-20T05:34:54.738Z,45.33
2023-05-20T05:35:59.339Z,44.79
2023-05-20T05:37:01.428Z,44.90
2023-05-20T05:38:03.287Z,44.31
2023-05-20T05:39:05.059Z,45.39
2023-05-20T05:40:09.354Z,43.61
2023-05-20T05:41:11.276Z,43.18
2023-05-20T05:42:13.049Z,42.10
2023-05-20T05:43:14.779Z,42.18
2023-05-20T05:44:16.674Z,41.86
2023-05-20T05:45:18.470Z,41.76
2023-05-20T05:46:20.279Z,41.70
2023-05-20T05:47:22.062Z,41.21
2023-05-20T05:48:23.892Z,41.58
2023-05-20T05:49:25.632Z,41.38
2023-05-20T05:50:27.376Z,40.46
2023-05-20T05:51:29.406Z,39.46
2023-05-20T05:52:31.178Z,40.04
2023-05-20T05:53:32.975Z,39.20
2023-05-20T05:54:34.867Z,39.22
2023-05-20T05:55:36.711Z,39.62
2023-05-20T05:56:38.456Z,39.45
2023-05-20T05:57:40.209Z,39.70
2023-05-20T06:48:08.031Z,29.16
2023-05-20T06:49:09.778Z,30.12
2023-05-20T06:50:12.218Z,31.64
2023-05-20T06:51:14.244Z,30.14
2023-05-20T06:52:16.017Z,29.96
2023-05-20T06:53:17.758Z,29.88
2023-05-20T06:54:19.538Z,29.75
2023-05-20T06:55:21.349Z,28.29
2023-05-20T06:56:23.109Z,28.78
2023-05-20T06:57:24.890Z,29.59
2023-05-20T06:58:26.797Z,28.40
2023-05-20T06:59:28.568Z,29.66
2023-05-20T07:00:30.314Z,29.49
2023-05-20T07:01:32.100Z,26.58
2023-05-20T07:02:39.778Z,27.32
2023-05-20T07:03:42.987Z,27.49
2023-05-20T07:04:44.808Z,28.63
2023-05-20T07:05:46.632Z,27.42
2023-05-20T07:06:48.392Z,28.49
2023-05-20T07:07:50.671Z,27.23
2023-05-20T07:08:52.490Z,29.25
2023-05-20T07:09:55.564Z,28.25
2023-05-20T07:10:57.826Z,28.97
2023-05-20T07:11:59.608Z,29.81
2023-05-20T07:13:01.352Z,29.14
2023-05-20T07:14:03.111Z,28.84
2023-05-20T07:15:05.185Z,29.03
2023-05-20T07:16:07.046Z,28.27
2023-05-20T07:17:08.827Z,27.58
2023-05-20T07:18:11.751Z,28.20
2023-05-20T07:19:13.717Z,28.29
2023-05-20T07:20:15.932Z,29.42
2023-05-20T07:21:18.122Z,29.32
2023-05-20T07:22:19.870Z,28.91
2023-05-20T07:23:21.696Z,27.62
2023-05-20T07:24:23.425Z,29.99
2023-05-20T07:25:25.148Z,32.97
2023-05-20T07:26:27.040Z,33.20
2023-05-20T07:27:28.929Z,30.72
2023-05-20T07:28:30.998Z,31.29
2023-05-20T07:29:32.792Z,33.08
2023-05-20T07:30:34.602Z,32.07
2023-05-20T07:31:36.518Z,30.75
2023-05-20T07:32:38.388Z,31.66
2023-05-20T07:33:40.236Z,32.18
2023-05-20T07:34:41.999Z,35.53
2023-05-20T07:35:44.878Z,34.44
2023-05-20T07:36:46.696Z,33.76
2023-05-20T07:37:48.528Z,35.37
2023-05-20T07:39:01.491Z,34.65
2023-05-20T07:40:05.908Z,34.57
2023-05-20T07:41:07.724Z,35.70
2023-05-20T07:42:09.466Z,34.13
2023-05-20T07:43:11.298Z,35.52
2023-05-20T07:44:13.380Z,34.98
2023-05-20T07:45:15.195Z,36.99
2023-05-20T07:46:18.727Z,35.52
2023-05-20T07:47:21.840Z,36.14
2023-05-20T07:48:23.718Z,35.89
2023-05-20T07:49:25.465Z,35.51
2023-05-20T07:50:27.242Z,36.32
2023-05-20T07:51:29.008Z,33.77
2023-05-20T07:52:33.687Z,35.08
2023-05-20T07:53:42.854Z,34.44
2023-05-20T07:54:44.638Z,33.29
2023-05-20T07:55:46.511Z,33.03
2023-05-20T07:56:48.293Z,33.82
2023-05-20T07:57:50.172Z,34.10
2023-05-20T07:58:53.997Z,33.77
2023-05-20T07:59:55.784Z,33.21
2023-05-20T08:00:57.889Z,33.33
2023-05-20T08:01:59.775Z,32.52
2023-05-20T08:03:01.773Z,33.41
2023-05-20T08:04:04.146Z,34.67
2023-05-20T08:05:06.629Z,36.39
2023-05-20T08:06:11.312Z,36.75
2023-05-20T08:07:13.078Z,36.54
2023-05-20T08:08:14.865Z,38.53
2023-05-20T08:09:16.722Z,36.77
2023-05-20T08:10:18.558Z,36.85
2023-05-20T08:11:21.849Z,36.24
2023-05-20T08:12:23.627Z,35.89
2023-05-20T08:13:25.466Z,35.86
2023-05-20T08:14:27.710Z,37.00
2023-05-20T08:15:29.569Z,38.51
2023-05-20T08:16:31.379Z,36.75
2023-05-20T08:17:33.467Z,40.32
2023-05-20T08:18:38.026Z,39.97
2023-05-20T08:19:39.943Z,37.99
2023-05-20T08:20:42.868Z,37.68
2023-05-20T08:21:45.885Z,40.65
2023-05-20T08:22:47.725Z,35.63
2023-05-20T08:23:49.692Z,34.58
2023-05-20T08:24:51.465Z,37.12
2023-05-20T08:25:53.241Z,34.90
2023-05-20T08:26:55.072Z,36.08
2023-05-20T08:27:56.898Z,34.09
2023-05-20T08:28:58.816Z,35.38
2023-05-20T08:30:01.087Z,35.96
2023-05-20T08:31:03.057Z,36.69
2023-05-20T08:32:05.191Z,34.55
2023-05-20T08:33:07.294Z,35.21
2023-05-20T08:34:09.066Z,36.36
2023-05-20T08:35:11.422Z,35.57
2023-05-20T08:36:13.847Z,37.85
2023-05-20T08:37:16.165Z,36.20
2023-05-20T08:38:17.962Z,34.20
2023-05-20T08:39:19.744Z,34.51
2023-05-20T08:40:22.507Z,35.36
2023-05-20T08:41:25.095Z,36.84
2023-05-20T08:42:30.673Z,34.84
2023-05-20T08:43:32.856Z,35.22
2023-05-20T08:44:36.153Z,34.34
2023-05-20T08:45:39.185Z,35.80
2023-05-20T08:46:42.089Z,34.64
2023-05-20T08:47:44.548Z,36.85
2023-05-20T08:48:46.373Z,35.22
2023-05-20T08:49:49.472Z,35.78
2023-05-20T08:50:52.522Z,36.68
2023-05-20T08:51:54.308Z,34.88
2023-05-20T08:52:56.635Z,34.76
2023-05-20T08:54:00.214Z,33.58
2023-05-20T08:55:03.014Z,36.54
2023-05-20T08:56:05.262Z,36.18
2023-05-20T08:57:07.008Z,34.17
2023-05-20T08:58:10.000Z,36.40
2023-05-20T08:59:12.190Z,35.89
2023-05-20T09:00:17.251Z,34.88
2023-05-20T09:01:19.754Z,37.59
2023-05-20T09:02:21.780Z,37.08
2023-05-20T09:03:24.510Z,37.60
2023-05-20T09:04:26.707Z,35.10
2023-05-20T09:05:29.064Z,36.91
2023-05-20T09:06:32.574Z,36.74
2023-05-20T09:07:34.345Z,34.96
2023-05-20T09:08:36.779Z,38.92
2023-05-20T09:09:38.518Z,34.19
2023-05-20T09:10:41.419Z,35.33
2023-05-20T09:11:43.698Z,37.20
2023-05-20T09:12:45.777Z,35.25
2023-05-20T09:13:47.522Z,33.28
2023-05-20T09:15:39.334Z,35.04
2023-05-20T09:16:41.701Z,36.17
2023-05-20T09:17:43.495Z,35.97
2023-05-20T09:18:46.824Z,34.98
2023-05-20T09:19:51.275Z,35.57
2023-05-20T09:20:53.156Z,36.26
2023-05-20T09:21:55.422Z,37.26
2023-05-20T09:23:08.152Z,36.61
2023-05-20T09:24:09.896Z,35.18
2023-05-20T09:25:13.393Z,35.94
2023-05-20T09:26:15.137Z,36.76
2023-05-20T09:27:17.195Z,37.72
2023-05-20T09:28:25.618Z,37.23
2023-05-20T09:29:27.406Z,35.93
2023-05-20T09:30:29.179Z,37.58
2023-05-20T09:31:33.983Z,38.57
2023-05-20T09:32:35.984Z,38.78
2023-05-20T09:33:38.322Z,39.16
2023-05-20T09:34:42.060Z,38.94
2023-05-20T09:35:44.455Z,38.46
2023-05-20T09:36:50.775Z,37.72
2023-05-20T09:37:57.093Z,38.83
2023-05-20T09:39:05.860Z,38.01
2023-05-20T09:40:10.161Z,38.97
2023-05-20T09:41:13.927Z,38.26
2023-05-20T09:42:26.615Z,38.45
2023-05-20T09:43:28.764Z,38.96
2023-05-20T09:44:31.750Z,39.44
2023-05-20T09:45:34.061Z,40.28
2023-05-20T09:46:37.237Z,40.18
2023-05-20T09:47:41.192Z,40.13
2023-05-20T09:48:44.304Z,40.33
2023-05-20T09:49:50.362Z,40.87
2023-05-20T09:50:53.150Z,39.94
2023-05-20T09:51:57.287Z,40.15
2023-05-20T09:53:04.358Z,40.07
2023-05-20T09:54:08.878Z,42.03
2023-05-20T09:55:11.062Z,37.70
2023-05-20T09:56:13.174Z,37.36
2023-05-20T09:57:14.972Z,38.90
2023-05-20T09:58:19.139Z,38.49
2023-05-20T09:59:22.697Z,37.72
2023-05-20T10:00:24.427Z,39.22
2023-05-20T10:01:26.539Z,37.59
2023-05-20T10:02:29.611Z,38.39
2023-05-20T10:03:33.736Z,36.58
2023-05-20T10:04:38.406Z,37.13
2023-05-20T10:05:57.267Z,36.77
2023-05-20T10:07:20.951Z,38.14
2023-05-20T10:08:40.385Z,39.33
2023-05-20T10:09:48.283Z,38.34
2023-05-20T10:10:56.582Z,40.83
2023-05-20T10:12:12.673Z,40.00
2023-05-20T10:13:42.191Z,37.06
2023-05-20T10:14:59.845Z,37.56
2023-05-20T10:16:20.922Z,36.87
2023-05-20T10:17:28.894Z,37.29
2023-05-20T10:18:49.283Z,35.72
2023-05-20T10:19:57.690Z,37.39
2023-05-20T10:20:59.749Z,38.21
2023-05-20T10:22:09.463Z,37.85
2023-05-20T10:23:30.749Z,38.51
2023-05-20T10:24:38.314Z,39.54
2023-05-20T10:25:51.385Z,40.54
2023-05-20T10:26:55.762Z,39.74
2023-05-20T10:28:12.033Z,40.78
2023-05-20T10:29:22.722Z,41.54
2023-05-20T10:30:24.586Z,40.33
2023-05-20T10:31:26.581Z,40.55
2023-05-20T10:32:33.342Z,39.62
2023-05-20T10:33:43.005Z,40.86
2023-05-20T10:34:48.136Z,40.51
2023-05-20T10:35:53.548Z,40.02
2023-05-20T10:36:55.209Z,41.13
2023-05-20T10:38:11.546Z,41.24
2023-05-20T10:39:17.601Z,41.42
2023-05-20T10:40:20.913Z,41.79
2023-05-20T10:41:25.108Z,38.87
2023-05-20T10:42:30.554Z,37.09
2023-05-20T10:43:32.318Z,35.29
2023-05-20T10:44:43.927Z,37.66
2023-05-20T10:45:57.384Z,37.25
2023-05-20T10:47:21.100Z,36.13
2023-05-20T10:48:26.267Z,34.95
2023-05-20T10:49:35.282Z,37.21
2023-05-20T10:50:38.819Z,35.79
2023-05-20T10:51:42.119Z,36.38
2023-05-20T10:52:44.001Z,36.04
2023-05-20T10:53:46.969Z,36.24
2023-05-20T10:54:56.669Z,36.17
2023-05-20T10:55:58.440Z,37.08
2023-05-20T10:57:00.443Z,37.41
2023-05-20T10:58:02.395Z,39.16
2023-05-20T10:59:04.833Z,40.84
2023-05-20T11:00:10.883Z,40.10
2023-05-20T11:01:14.273Z,40.78
2023-05-20T11:02:17.205Z,40.63
2023-05-20T11:03:22.114Z,41.92
2023-05-20T11:04:24.312Z,42.02
2023-05-20T11:05:27.157Z,41.77
2023-05-20T11:06:29.336Z,41.89
2023-05-20T11:07:32.624Z,42.43
2023-05-20T11:08:34.364Z,43.64
2023-05-20T11:09:36.474Z,42.61
2023-05-20T11:10:38.360Z,43.75
2023-05-20T11:11:41.277Z,43.96
2023-05-20T11:12:43.103Z,44.23
2023-05-20T11:13:46.092Z,43.04
2023-05-20T11:14:49.791Z,43.97
2023-05-20T11:15:51.666Z,44.32
2023-05-20T11:16:56.448Z,43.97
2023-05-20T11:18:02.733Z,44.32
2023-05-20T11:19:04.717Z,45.17
2023-05-20T11:20:07.269Z,43.53
2023-05-20T11:21:10.025Z,44.17
2023-05-20T11:22:12.123Z,44.49
2023-05-20T11:23:15.570Z,44.07
2023-05-20T11:24:28.375Z,44.67
2023-05-20T11:25:30.634Z,45.46
2023-05-20T11:26:33.476Z,45.27
2023-05-20T11:27:35.244Z,45.28
2023-05-20T11:28:37.064Z,45.75
2023-05-20T11:29:40.784Z,46.24
2023-05-20T11:30:43.855Z,47.51
2023-05-20T11:31:46.738Z,47.49
2023-05-20T11:33:01.692Z,47.83
2023-05-20T11:34:04.433Z,46.91
2023-05-20T11:35:07.540Z,46.99
2023-05-20T11:36:23.896Z,47.49
2023-05-20T11:37:29.636Z,47.74
2023-05-20T11:38:31.905Z,46.65
2023-05-20T11:39:34.112Z,47.39
2023-05-20T11:40:49.964Z,46.92
2023-05-20T11:41:52.736Z,45.81
2023-05-20T11:42:56.353Z,44.07
2023-05-20T11:43:59.584Z,45.34
2023-05-20T11:45:01.674Z,44.75
2023-05-20T11:46:05.352Z,45.57
2023-05-20T11:47:09.840Z,46.03
2023-05-20T11:48:12.820Z,44.67
2023-05-20T11:49:15.797Z,44.87
2023-05-20T11:50:18.926Z,44.39
2023-05-20T11:51:30.305Z,44.33
2023-05-20T11:52:34.065Z,45.94
2023-05-20T11:53:41.330Z,45.00
2023-05-20T11:54:43.066Z,45.56
2023-05-20T11:55:58.384Z,44.99
2023-05-20T11:57:00.157Z,44.97
2023-05-20T11:58:03.780Z,45.94
2023-05-20T11:59:06.939Z,45.32
2023-05-20T12:00:10.970Z,45.23
2023-05-20T12:01:22.447Z,46.10
2023-05-20T12:02:24.820Z,46.98
2023-05-20T12:03:27.600Z,46.47
2023-05-20T12:04:29.594Z,47.29
2023-05-20T12:05:31.579Z,46.05
2023-05-20T12:06:36.636Z,45.19
2023-05-20T12:07:38.646Z,45.25
2023-05-20T12:08:40.620Z,46.49
2023-05-20T12:09:42.372Z,46.29
2023-05-20T12:10:45.239Z,46.74
2023-05-20T12:11:47.033Z,45.66
2023-05-20T12:12:48.920Z,46.26
2023-05-20T12:13:50.699Z,45.63
2023-05-20T12:14:52.418Z,46.64
2023-05-20T12:15:54.168Z,46.40
2023-05-20T12:16:55.911Z,47.00
2023-05-20T12:17:57.753Z,48.24
2023-05-20T12:18:59.732Z,46.90
2023-05-20T12:20:01.628Z,47.67
2023-05-20T12:21:03.506Z,47.53
2023-05-20T12:22:05.449Z,47.32
2023-05-20T12:23:07.270Z,48.35
2023-05-20T12:24:09.441Z,47.17
2023-05-20T12:25:15.765Z,47.96
2023-05-20T12:26:17.544Z,47.86
2023-05-20T12:27:19.302Z,48.31
2023-05-20T12:28:21.820Z,48.90
2023-05-20T12:29:24.016Z,46.21
2023-05-20T12:30:25.805Z,47.06
2023-05-20T12:31:27.607Z,47.89
2023-05-20T12:32:29.401Z,47.66
2023-05-20T12:33:31.199Z,47.74
2023-05-20T12:34:33.320Z,48.40
2023-05-20T12:35:43.242Z,47.79
2023-05-20T12:36:44.996Z,46.67
2023-05-20T12:37:46.808Z,47.26
2023-05-20T12:38:48.558Z,46.47
2023-05-20T12:39:51.396Z,47.17
2023-05-20T12:40:53.183Z,45.68
2023-05-20T12:41:54.906Z,46.96
2023-05-20T12:42:56.686Z,44.63
2023-05-20T12:43:58.524Z,45.14
2023-05-20T12:45:00.264Z,45.16
2023-05-20T12:46:02.149Z,44.61
2023-05-20T12:47:04.155Z,44.75
2023-05-20T12:48:08.045Z,45.15
2023-05-20T12:49:09.928Z,44.69
2023-05-20T12:50:11.869Z,44.69
2023-05-20T12:51:13.704Z,45.23
2023-05-20T12:52:22.000Z,44.18
2023-05-20T12:53:24.744Z,44.30
2023-05-20T12:54:28.376Z,44.40
2023-05-20T12:55:30.175Z,43.90
2023-05-20T12:56:31.910Z,43.24
2023-05-20T12:57:33.657Z,44.74
2023-05-20T12:58:35.622Z,43.72
2023-05-20T12:59:37.518Z,43.33
2023-05-20T13:00:39.318Z,43.99
2023-05-20T13:01:41.277Z,44.05
2023-05-20T13:02:43.774Z,41.80
2023-05-20T13:03:45.694Z,40.92
2023-05-20T13:04:47.576Z,40.36
2023-05-20T13:05:49.401Z,41.79
2023-05-20T13:06:51.269Z,43.09
2023-05-20T13:07:53.009Z,38.93
2023-05-20T13:08:54.767Z,39.16
2023-05-20T13:09:56.629Z,39.13
2023-05-20T13:10:58.394Z,40.14
2023-05-20T13:12:03.163Z,40.78
2023-05-20T13:13:04.995Z,39.28
2023-05-20T13:14:06.738Z,40.18
2023-05-20T13:15:09.136Z,39.78
2023-05-20T13:16:12.109Z,39.87
2023-05-20T13:17:13.885Z,41.23
2023-05-20T13:18:16.753Z,41.66
2023-05-20T13:19:18.518Z,40.87
2023-05-20T13:20:20.355Z,42.43
2023-05-20T13:21:22.261Z,42.33
2023-05-20T13:22:24.077Z,42.59
2023-05-20T13:23:25.841Z,43.11
2023-05-20T13:24:27.609Z,44.57
2023-05-20T13:25:29.463Z,44.42
2023-05-20T13:26:31.552Z,41.77
2023-05-20T13:27:33.363Z,42.90
2023-05-20T13:28:35.576Z,44.11
2023-05-20T13:29:37.426Z,47.55
2023-05-20T13:30:39.349Z,48.74
2023-05-20T13:31:42.370Z,46.77
2023-05-20T13:32:44.263Z,44.94
2023-05-20T13:33:46.047Z,46.94
2023-05-20T13:34:47.799Z,42.71
2023-05-20T13:35:49.936Z,45.01
2023-05-20T13:36:51.690Z,43.43
2023-05-20T13:37:53.500Z,44.13
2023-05-20T13:38:55.234Z,42.92
2023-05-20T13:39:57.030Z,41.30
2023-05-20T13:40:59.543Z,41.15
2023-05-20T13:42:04.523Z,40.10
2023-05-20T13:43:06.530Z,40.32
2023-05-20T13:44:08.467Z,42.24
2023-05-20T13:45:10.661Z,41.20
2023-05-20T13:46:12.563Z,41.10
2023-05-20T13:47:14.523Z,41.51
2023-05-20T13:48:16.493Z,42.69
2023-05-20T13:49:18.546Z,43.43
2023-05-20T13:50:20.595Z,44.03
2023-05-20T13:51:22.554Z,44.76
2023-05-20T13:52:24.335Z,44.57
2023-05-20T13:53:26.086Z,44.75
2023-05-20T13:54:27.838Z,43.21
2023-05-20T13:55:29.645Z,42.09
2023-05-20T13:56:31.451Z,43.51
2023-05-20T13:57:33.239Z,44.04
2023-05-20T13:58:36.995Z,44.30
2023-05-20T13:59:38.857Z,42.22
2023-05-20T14:00:40.737Z,42.80
2023-05-20T14:01:45.258Z,42.77
2023-05-20T14:02:47.490Z,42.55
2023-05-20T14:03:49.583Z,43.11
2023-05-20T14:04:51.472Z,42.60
2023-05-20T14:05:53.465Z,42.90
2023-05-20T14:06:55.344Z,43.34
2023-05-20T14:07:57.411Z,43.43
2023-05-20T14:08:59.202Z,43.49
2023-05-20T14:10:00.986Z,43.46
2023-05-20T14:11:02.743Z,44.21
2023-05-20T14:12:05.874Z,43.61
2023-05-20T14:13:09.056Z,43.76
2023-05-20T14:14:11.076Z,42.87
2023-05-20T14:15:12.893Z,43.54
2023-05-20T14:16:14.794Z,43.78
2023-05-20T14:17:16.764Z,44.33
2023-05-20T14:18:19.390Z,43.09
2023-05-20T14:19:21.216Z,43.16
2023-05-20T14:20:23.498Z,43.66
2023-05-20T14:21:25.253Z,44.53
2023-05-20T14:22:26.974Z,43.82